Time;durP1;ratioP1;P1;durP2;ratioP2;P2;SDS_P1;SDS_P2;PMS_P1;PMS_P2;Temp;Humidity;BMP_temperature;BMP_pressure;BME280_temperature;BME280_humidity;BME280_pressure;Samples;Min_cycle;Max_cycle;Signal;HPM_P1;HPM_P2
2023/03/02 00:01:51;;;;;;;17.17;10.80;;;2.10;99.90;;;;;;5038015;28;20490;-76
2023/03/02 00:04:39;;;;;;;16.48;10.88;;;2.10;99.90;;;;;;5033746;28;20119;-78
2023/03/02 00:07:12;;;;;;;18.63;12.40;;;2.00;99.90;;;;;;5037959;28;20025;-77
2023/03/02 00:09:37;;;;;;;17.08;11.10;;;2.00;99.90;;;;;;5019706;28;20131;-78
2023/03/02 00:12:04;;;;;;;17.02;11.30;;;1.90;99.90;;;;;;5022642;28;20307;-78
2023/03/02 00:14:30;;;;;;;18.17;12.57;;;1.90;99.90;;;;;;5037369;28;20044;-77
2023/03/02 00:16:56;;;;;;;19.85;13.20;;;1.90;99.90;;;;;;5023113;28;20033;-78
2023/03/02 00:19:21;;;;;;;19.92;12.45;;;1.90;99.90;;;;;;5037371;28;20041;-79
2023/03/02 00:21:47;;;;;;;21.02;13.38;;;1.80;99.90;;;;;;5019114;28;20029;-78
2023/03/02 00:24:14;;;;;;;22.70;14.60;;;1.80;99.90;;;;;;5024190;28;20235;-77
2023/03/02 00:26:40;;;;;;;23.05;14.10;;;1.80;99.90;;;;;;5023360;28;20651;-76
2023/03/02 00:29:05;;;;;;;25.27;15.32;;;1.80;99.90;;;;;;5022458;28;20037;-77
2023/03/02 00:31:31;;;;;;;23.27;15.23;;;1.80;99.90;;;;;;5037779;28;20068;-76
2023/03/02 00:33:57;;;;;;;23.85;15.15;;;1.80;99.90;;;;;;5018702;28;20033;-75
2023/03/02 00:36:23;;;;;;;23.98;15.20;;;1.70;99.90;;;;;;5036541;28;20041;-75
2023/03/02 00:38:50;;;;;;;27.45;17.75;;;1.70;99.90;;;;;;5037378;28;20380;-77
2023/03/02 00:41:17;;;;;;;29.48;17.30;;;1.60;99.90;;;;;;5018325;28;20048;-77
2023/03/02 00:43:43;;;;;;;28.70;17.10;;;1.60;99.90;;;;;;5018520;28;20029;-77
2023/03/02 00:46:14;;;;;;;33.40;19.83;;;1.60;99.90;;;;;;5023220;28;20038;-79
2023/03/02 00:48:40;;;;;;;30.02;17.83;;;1.60;99.90;;;;;;5038726;28;20069;-78
2023/03/02 00:51:06;;;;;;;32.67;19.48;;;1.50;99.90;;;;;;5016081;28;20498;-80
2023/03/02 00:53:33;;;;;;;34.45;20.20;;;1.50;99.90;;;;;;5017763;28;20048;-78
2023/03/02 00:56:00;;;;;;;35.92;21.38;;;1.50;99.90;;;;;;5012444;28;20030;-78
2023/03/02 00:58:26;;;;;;;38.22;22.33;;;1.50;99.90;;;;;;5011310;28;20041;-79
2023/03/02 01:00:52;;;;;;;34.78;21.30;;;1.50;99.90;;;;;;5036143;28;20068;-80
2023/03/02 01:03:18;;;;;;;39.33;21.95;;;1.50;99.90;;;;;;5018486;28;20124;-79
2023/03/02 01:05:44;;;;;;;37.22;21.42;;;1.50;99.90;;;;;;5037557;28;20068;-78
2023/03/02 01:08:10;;;;;;;37.38;22.05;;;1.50;99.90;;;;;;5018508;28;20041;-78
2023/03/02 01:10:39;;;;;;;36.80;21.15;;;1.50;99.90;;;;;;5036370;28;20445;-78
2023/03/02 01:13:05;;;;;;;35.72;21.63;;;1.50;99.90;;;;;;5016944;28;20029;-79
2023/03/02 01:15:31;;;;;;;36.78;22.08;;;1.50;99.90;;;;;;5036611;28;20044;-78
2023/03/02 01:17:58;;;;;;;34.20;20.70;;;1.50;99.90;;;;;;5035819;28;20513;-80
2023/03/02 01:20:24;;;;;;;33.55;19.85;;;1.50;99.90;;;;;;5023980;28;20172;-79
2023/03/02 01:22:50;;;;;;;37.90;21.52;;;1.50;99.90;;;;;;5033100;28;20029;-77
2023/03/02 01:25:16;;;;;;;38.53;22.15;;;1.50;99.90;;;;;;5036304;28;20060;-78
2023/03/02 01:27:42;;;;;;;37.10;21.60;;;1.60;99.90;;;;;;5036374;28;20037;-78
2023/03/02 01:30:08;;;;;;;36.88;20.98;;;1.50;99.90;;;;;;5018929;28;20056;-78
2023/03/02 01:32:34;;;;;;;37.53;20.90;;;1.50;99.90;;;;;;5016281;28;20037;-77
2023/03/02 01:34:59;;;;;;;35.28;21.15;;;1.60;99.90;;;;;;5017129;28;20033;-77
2023/03/02 01:37:28;;;;;;;33.80;20.10;;;1.50;99.90;;;;;;5023964;28;20033;-79
2023/03/02 01:39:53;;;;;;;35.00;19.98;;;1.50;99.90;;;;;;5018602;28;20032;-77
2023/03/02 01:42:19;;;;;;;35.28;19.75;;;1.60;99.90;;;;;;5018519;28;20033;-78
2023/03/02 01:44:48;;;;;;;40.63;22.92;;;1.60;99.90;;;;;;5035461;28;20067;-78
2023/03/02 01:47:33;;;;;;;39.03;21.58;;;1.60;99.90;;;;;;5017370;28;20037;-78
2023/03/02 01:50:10;;;;;;;37.80;20.33;;;1.60;99.90;;;;;;5018753;28;20037;-79
2023/03/02 01:52:38;;;;;;;38.65;22.05;;;1.60;99.90;;;;;;5023466;28;20088;-79
2023/03/02 01:55:09;;;;;;;38.63;22.60;;;1.50;99.90;;;;;;5035192;28;20130;-78
2023/03/02 01:57:42;;;;;;;39.03;21.48;;;1.60;99.90;;;;;;5016189;28;20526;-78
2023/03/02 02:00:19;;;;;;;36.97;22.17;;;1.60;99.90;;;;;;5036677;28;20037;-79
2023/03/02 02:02:45;;;;;;;35.75;21.17;;;1.60;99.90;;;;;;5036135;28;20098;-77
2023/03/02 02:05:16;;;;;;;37.85;21.77;;;1.60;99.90;;;;;;5034607;28;20514;-79
2023/03/02 02:07:42;;;;;;;40.72;22.92;;;1.60;99.90;;;;;;5023324;28;20467;-80
2023/03/02 02:10:11;;;;;;;41.05;22.75;;;1.60;99.90;;;;;;5023499;28;20112;-78
2023/03/02 02:12:37;;;;;;;41.45;23.70;;;1.50;99.90;;;;;;5017247;28;20418;-79
2023/03/02 02:15:03;;;;;;;38.63;22.88;;;1.50;99.90;;;;;;5022931;28;20150;-77
2023/03/02 02:17:30;;;;;;;36.90;21.05;;;1.50;99.90;;;;;;5023565;28;20119;-79
2023/03/02 02:20:05;;;;;;;35.15;19.83;;;1.50;99.90;;;;;;5017204;28;20124;-76
2023/03/02 02:22:40;;;;;;;36.00;21.58;;;1.50;99.90;;;;;;5035532;28;20032;-80
2023/03/02 02:25:19;;;;;;;38.00;21.25;;;1.40;99.90;;;;;;5015740;28;20041;-78
2023/03/02 02:27:46;;;;;;;34.97;19.80;;;1.40;99.90;;;;;;5018507;28;20478;-77
2023/03/02 02:30:14;;;;;;;37.00;20.85;;;1.40;99.90;;;;;;5022873;28;20768;-77
2023/03/02 02:32:42;;;;;;;35.40;19.35;;;1.40;99.90;;;;;;5036028;28;20029;-79
2023/03/02 02:35:17;;;;;;;32.53;18.50;;;1.40;99.90;;;;;;5034287;28;20098;-79
2023/03/02 02:37:48;;;;;;;33.92;19.20;;;1.40;99.90;;;;;;5034977;28;20375;-79
2023/03/02 02:40:43;;;;;;;32.10;17.52;;;1.40;99.90;;;;;;5034611;28;20065;-81
2023/03/02 02:43:13;;;;;;;31.33;17.27;;;1.40;99.90;;;;;;5009135;28;20050;-78
2023/03/02 02:45:39;;;;;;;30.10;17.50;;;1.40;99.90;;;;;;5016659;28;20496;-78
2023/03/02 02:48:07;;;;;;;33.42;18.08;;;1.40;99.90;;;;;;5022862;28;20052;-79
2023/03/02 02:50:34;;;;;;;39.25;20.67;;;1.40;99.90;;;;;;5036795;28;20029;-79
2023/03/02 02:53:04;;;;;;;28.95;16.38;;;1.40;99.90;;;;;;5035259;28;20030;-77
2023/03/02 02:55:32;;;;;;;29.90;16.88;;;1.40;99.90;;;;;;5034598;28;20049;-77
2023/03/02 02:57:59;;;;;;;30.27;16.23;;;1.40;99.90;;;;;;5023066;28;20049;-77
2023/03/02 03:00:26;;;;;;;26.45;15.18;;;1.40;99.90;;;;;;5003245;28;20046;-78
2023/03/02 03:03:27;;;;;;;27.02;15.25;;;1.40;99.90;;;;;;4998232;28;20033;-77
2023/03/02 03:05:54;;;;;;;30.95;17.20;;;1.40;99.90;;;;;;4995155;28;20129;-79
2023/03/02 03:08:47;;;;;;;30.27;17.15;;;1.30;99.90;;;;;;5015765;28;20112;-81
2023/03/02 03:11:22;;;;;;;28.77;15.82;;;1.30;99.90;;;;;;5018259;28;20030;-79
2023/03/02 03:13:53;;;;;;;29.77;16.92;;;1.30;99.90;;;;;;5006650;28;20044;-78
2023/03/02 03:16:19;;;;;;;35.92;18.77;;;1.30;99.90;;;;;;5006893;28;20068;-80
2023/03/02 03:18:48;;;;;;;37.05;21.08;;;1.30;99.90;;;;;;5018485;28;20052;-77
2023/03/02 03:21:17;;;;;;;34.83;19.95;;;1.20;99.90;;;;;;5018765;28;20117;-78
2023/03/02 03:23:43;;;;;;;36.20;19.75;;;1.20;99.90;;;;;;5007784;28;20058;-78
2023/03/02 03:26:09;;;;;;;37.90;21.17;;;1.20;99.90;;;;;;5005777;28;20049;-77
2023/03/02 03:28:34;;;;;;;36.20;19.13;;;1.10;99.90;;;;;;5001153;28;20095;-78
2023/03/02 03:31:00;;;;;;;41.15;21.58;;;1.10;99.90;;;;;;5007462;28;20052;-78
2023/03/02 03:33:26;;;;;;;37.33;21.55;;;1.00;99.90;;;;;;5002598;28;20034;-78
2023/03/02 03:35:51;;;;;;;38.00;20.90;;;1.00;99.90;;;;;;5018330;28;20056;-79
2023/03/02 03:38:17;;;;;;;35.60;19.15;;;1.00;99.90;;;;;;4999504;28;20037;-79
2023/03/02 03:40:43;;;;;;;35.00;19.38;;;1.00;99.90;;;;;;5018375;28;20038;-79
2023/03/02 03:43:10;;;;;;;37.38;19.65;;;0.90;99.90;;;;;;5001145;28;20029;-80
2023/03/02 03:45:36;;;;;;;35.97;19.15;;;0.90;99.90;;;;;;5001052;28;20053;-79
2023/03/02 03:48:02;;;;;;;38.65;20.73;;;0.90;99.90;;;;;;5006815;28;20060;-79
2023/03/02 03:50:29;;;;;;;36.20;19.25;;;0.90;99.90;;;;;;5006227;28;20133;-79
2023/03/02 03:52:54;;;;;;;37.67;20.88;;;0.80;99.90;;;;;;5001696;28;20124;-80
2023/03/02 03:55:20;;;;;;;38.75;20.35;;;0.80;99.90;;;;;;5017774;28;20188;-79
2023/03/02 03:57:46;;;;;;;37.17;20.17;;;0.80;99.90;;;;;;5014408;28;20041;-78
2023/03/02 04:00:13;;;;;;;34.95;18.73;;;0.70;99.90;;;;;;5021011;28;20041;-80
2023/03/02 04:02:40;;;;;;;33.58;17.98;;;0.70;99.90;;;;;;5038021;28;20037;-78
2023/03/02 04:05:07;;;;;;;36.30;18.38;;;0.70;99.90;;;;;;5037521;28;20056;-78
2023/03/02 04:07:34;;;;;;;33.30;17.25;;;0.70;99.90;;;;;;5037112;28;20039;-78
2023/03/02 04:10:02;;;;;;;33.10;17.27;;;0.60;99.90;;;;;;5029322;28;20041;-80
2023/03/02 04:12:29;;;;;;;31.05;15.80;;;0.50;99.90;;;;;;5019356;28;20033;-79
2023/03/02 04:14:55;;;;;;;31.67;16.40;;;0.50;99.90;;;;;;5038409;28;20025;-80
2023/03/02 04:17:21;;;;;;;32.35;17.73;;;0.50;99.90;;;;;;5019800;28;20548;-77
2023/03/02 04:19:46;;;;;;;34.75;17.23;;;0.50;99.90;;;;;;5037037;28;20497;-79
2023/03/02 04:22:14;;;;;;;32.05;16.58;;;0.50;99.90;;;;;;5036362;28;20061;-77
2023/03/02 04:24:39;;;;;;;36.97;18.83;;;0.50;99.90;;;;;;5037917;28;20065;-78
2023/03/02 04:27:05;;;;;;;30.95;17.85;;;0.50;99.90;;;;;;5037693;28;20120;-77
2023/03/02 04:29:31;;;;;;;34.33;18.48;;;0.50;99.90;;;;;;5036906;28;20540;-78
2023/03/02 04:31:57;;;;;;;34.17;17.52;;;0.50;99.90;;;;;;5019330;28;20045;-79
2023/03/02 04:34:24;;;;;;;33.63;17.00;;;0.50;99.90;;;;;;5039448;28;20033;-78
2023/03/02 04:36:50;;;;;;;35.95;18.73;;;0.50;99.90;;;;;;5018237;28;20025;-76
2023/03/02 04:39:17;;;;;;;32.70;17.48;;;0.50;99.90;;;;;;5019327;28;20049;-78
2023/03/02 04:41:44;;;;;;;39.25;20.55;;;0.40;99.90;;;;;;5037190;28;20478;-77
2023/03/02 04:44:09;;;;;;;36.08;18.55;;;0.40;99.90;;;;;;5019407;28;20612;-77
2023/03/02 04:46:35;;;;;;;35.28;17.75;;;0.50;99.90;;;;;;5019243;28;20397;-77
2023/03/02 04:49:01;;;;;;;33.85;17.73;;;0.40;99.90;;;;;;5035236;28;20041;-79
2023/03/02 04:51:35;;;;;;;32.10;16.23;;;0.40;99.90;;;;;;5036851;28;20580;-77
2023/03/02 04:54:04;;;;;;;37.35;19.90;;;0.40;99.90;;;;;;5037580;28;20056;-77
2023/03/02 04:56:30;;;;;;;32.67;16.52;;;0.40;99.90;;;;;;5019632;28;20459;-78
2023/03/02 04:58:56;;;;;;;33.50;17.17;;;0.40;99.90;;;;;;5036137;28;20099;-77
2023/03/02 05:01:22;;;;;;;28.58;14.98;;;0.40;99.90;;;;;;5036652;28;20496;-78
2023/03/02 05:03:48;;;;;;;28.35;15.15;;;0.30;99.90;;;;;;5018382;28;20037;-79
2023/03/02 05:06:14;;;;;;;31.17;15.63;;;0.40;99.90;;;;;;5018757;28;20419;-77
2023/03/02 05:08:40;;;;;;;31.38;16.00;;;0.30;99.90;;;;;;5018002;28;20033;-78
2023/03/02 05:11:06;;;;;;;30.85;15.77;;;0.30;99.90;;;;;;5018099;28;20094;-78
2023/03/02 05:13:33;;;;;;;30.45;15.80;;;0.30;99.90;;;;;;5036689;28;20062;-77
2023/03/02 05:15:59;;;;;;;28.27;14.90;;;0.30;99.90;;;;;;5023634;28;20045;-78
2023/03/02 05:18:31;;;;;;;30.65;14.82;;;0.30;99.90;;;;;;5017399;28;20033;-75
2023/03/02 05:20:57;;;;;;;28.45;14.30;;;0.30;99.90;;;;;;5035394;28;20048;-79
2023/03/02 05:23:23;;;;;;;28.65;14.90;;;0.30;99.90;;;;;;5018371;28;20033;-79
2023/03/02 05:25:52;;;;;;;28.63;15.07;;;0.30;99.90;;;;;;5037046;28;20045;-79
2023/03/02 05:28:18;;;;;;;26.20;13.48;;;0.30;99.90;;;;;;5018600;28;20049;-78
2023/03/02 05:30:44;;;;;;;26.25;14.05;;;0.30;99.90;;;;;;5035705;28;20099;-80
2023/03/02 05:33:10;;;;;;;26.42;12.30;;;0.20;99.90;;;;;;5035113;28;20033;-80
2023/03/02 05:35:36;;;;;;;27.20;14.80;;;0.20;99.90;;;;;;5037689;28;20129;-79
2023/03/02 05:38:03;;;;;;;26.27;12.85;;;0.20;99.90;;;;;;5034073;28;20136;-79
2023/03/02 05:40:29;;;;;;;27.20;13.85;;;0.20;99.90;;;;;;5033331;28;20029;-78
2023/03/02 05:42:55;;;;;;;26.38;13.45;;;0.20;99.90;;;;;;5015512;28;20090;-77
2023/03/02 05:45:24;;;;;;;30.10;16.15;;;0.20;99.90;;;;;;5015023;28;20067;-80
2023/03/02 05:47:50;;;;;;;31.00;15.60;;;0.30;99.90;;;;;;5020031;28;20064;-78
2023/03/02 05:50:16;;;;;;;33.85;17.08;;;0.30;99.90;;;;;;5020482;28;20060;-77
2023/03/02 05:52:44;;;;;;;30.58;14.98;;;0.30;99.90;;;;;;5034022;28;20494;-77
2023/03/02 05:55:11;;;;;;;33.80;17.45;;;0.30;99.90;;;;;;5033190;28;20414;-80
2023/03/02 05:57:37;;;;;;;30.85;15.77;;;0.30;99.90;;;;;;5032411;28;20164;-77
2023/03/02 06:00:05;;;;;;;32.03;16.25;;;0.30;99.90;;;;;;5032355;28;20669;-77
2023/03/02 06:02:31;;;;;;;33.65;16.77;;;0.30;99.90;;;;;;5016106;28;20564;-78
2023/03/02 06:04:57;;;;;;;30.88;16.13;;;0.30;99.90;;;;;;5032860;28;20785;-77
2023/03/02 06:07:22;;;;;;;34.72;17.15;;;0.20;99.90;;;;;;5020979;28;20033;-78
2023/03/02 06:09:49;;;;;;;35.05;17.38;;;0.20;99.90;;;;;;5033569;28;20037;-78
2023/03/02 06:12:16;;;;;;;35.67;17.65;;;0.20;99.90;;;;;;5014890;28;20055;-76
2023/03/02 06:14:42;;;;;;;30.55;16.27;;;0.20;99.90;;;;;;5015382;28;20060;-77
2023/03/02 06:17:10;;;;;;;33.28;16.92;;;0.20;99.90;;;;;;5016838;28;20113;-79
2023/03/02 06:19:35;;;;;;;34.33;18.08;;;0.20;99.90;;;;;;5031111;28;20056;-79
2023/03/02 06:22:01;;;;;;;37.05;18.58;;;0.20;99.90;;;;;;5020912;28;20037;-79
2023/03/02 06:24:27;;;;;;;34.42;18.27;;;0.20;99.90;;;;;;4999531;28;20064;-78
2023/03/02 06:26:53;;;;;;;38.47;19.15;;;0.20;99.90;;;;;;5034126;28;22291;-78
2023/03/02 06:29:20;;;;;;;36.53;18.48;;;0.20;99.90;;;;;;5021136;28;20095;-77
2023/03/02 06:31:46;;;;;;;38.17;19.40;;;0.20;99.90;;;;;;5015006;28;20034;-79
2023/03/02 06:34:11;;;;;;;41.50;20.60;;;0.20;99.90;;;;;;5021542;28;20045;-78
2023/03/02 06:36:37;;;;;;;41.72;20.73;;;0.20;99.90;;;;;;5035731;28;20086;-79
2023/03/02 06:39:05;;;;;;;38.50;18.60;;;0.20;99.90;;;;;;5016280;28;20041;-79
2023/03/02 06:41:32;;;;;;;37.95;19.00;;;0.30;99.90;;;;;;5022531;28;20044;-79
2023/03/02 06:44:01;;;;;;;42.25;20.02;;;0.20;99.90;;;;;;5034379;28;20033;-79
2023/03/02 06:46:26;;;;;;;39.05;19.98;;;0.20;99.90;;;;;;5034902;28;20509;-80
2023/03/02 06:48:52;;;;;;;38.75;19.25;;;0.20;99.90;;;;;;5017553;28;20033;-80
2023/03/02 06:51:18;;;;;;;39.08;20.15;;;0.30;99.90;;;;;;5016480;28;20065;-79
2023/03/02 06:53:43;;;;;;;35.97;17.63;;;0.30;99.90;;;;;;5017895;28;20504;-78
2023/03/02 06:56:09;;;;;;;34.67;17.30;;;0.30;99.90;;;;;;5015645;28;20368;-80
2023/03/02 06:58:36;;;;;;;35.92;17.38;;;0.30;99.90;;;;;;5035966;28;20064;-79
2023/03/02 07:01:02;;;;;;;36.42;17.58;;;0.30;99.90;;;;;;5025851;28;20041;-79
2023/03/02 07:03:28;;;;;;;39.22;20.27;;;0.40;99.90;;;;;;5022014;28;20029;-79
2023/03/02 07:05:54;;;;;;;35.88;18.08;;;0.40;99.90;;;;;;5033704;28;20056;-79
2023/03/02 07:08:20;;;;;;;33.72;17.33;;;0.40;99.90;;;;;;5035102;28;20533;-80
2023/03/02 07:10:45;;;;;;;36.47;17.83;;;0.40;99.90;;;;;;5015444;28;20171;-80
2023/03/02 07:13:11;;;;;;;42.08;20.30;;;0.40;99.90;;;;;;5015235;28;20107;-79
2023/03/02 07:15:40;;;;;;;39.63;18.98;;;0.40;99.90;;;;;;5035447;28;20041;-79
2023/03/02 07:18:05;;;;;;;38.90;19.58;;;0.50;99.90;;;;;;5034589;28;20052;-78
2023/03/02 07:20:31;;;;;;;36.00;17.27;;;0.50;99.90;;;;;;5016092;28;20494;-76
2023/03/02 07:22:57;;;;;;;34.70;16.98;;;0.60;99.90;;;;;;5034536;28;20041;-78
2023/03/02 07:25:22;;;;;;;31.65;16.55;;;0.60;99.90;;;;;;5016703;28;20050;-78
2023/03/02 07:27:48;;;;;;;31.52;16.20;;;0.60;99.90;;;;;;5034382;28;20041;-78
2023/03/02 07:30:14;;;;;;;36.80;19.70;;;0.70;99.90;;;;;;5034320;28;20048;-77
2023/03/02 07:32:40;;;;;;;34.95;17.13;;;0.70;99.90;;;;;;5015210;28;20155;-79
2023/03/02 07:35:06;;;;;;;31.15;16.52;;;0.80;99.90;;;;;;5017155;28;20041;-79
2023/03/02 07:37:34;;;;;;;33.92;16.88;;;0.80;99.90;;;;;;5035240;28;20505;-79
2023/03/02 07:40:00;;;;;;;33.58;16.70;;;0.90;99.90;;;;;;5021338;28;20047;-76
2023/03/02 07:42:26;;;;;;;33.58;17.00;;;0.90;99.90;;;;;;5016759;28;20064;-80
2023/03/02 07:44:53;;;;;;;29.77;15.27;;;1.00;99.90;;;;;;5015948;28;20064;-78
2023/03/02 07:47:18;;;;;;;29.58;14.65;;;1.10;99.90;;;;;;5015711;28;20120;-80
2023/03/02 07:49:44;;;;;;;29.73;14.55;;;1.20;99.90;;;;;;5021643;28;20198;-78
2023/03/02 07:52:10;;;;;;;30.88;15.32;;;1.20;99.90;;;;;;5016006;28;20100;-77
2023/03/02 07:54:36;;;;;;;30.27;15.18;;;1.30;99.90;;;;;;5014572;28;20095;-77
2023/03/02 07:57:01;;;;;;;28.55;13.95;;;1.30;99.90;;;;;;5032710;28;20056;-78
2023/03/02 07:59:28;;;;;;;28.33;14.32;;;1.40;99.90;;;;;;5006214;28;20037;-78
2023/03/02 08:01:54;;;;;;;26.08;13.02;;;1.50;99.90;;;;;;4999181;28;20128;-77
2023/03/02 08:04:20;;;;;;;28.23;15.18;;;1.60;99.90;;;;;;5018286;28;20026;-79
2023/03/02 08:06:46;;;;;;;29.65;15.07;;;1.70;99.90;;;;;;5001078;28;20050;-80
2023/03/02 08:09:12;;;;;;;29.45;15.23;;;1.80;99.90;;;;;;5018892;28;20034;-77
2023/03/02 08:11:38;;;;;;;27.08;14.50;;;1.90;99.90;;;;;;5000224;28;20038;-79
2023/03/02 08:14:03;;;;;;;28.42;15.07;;;1.90;99.90;;;;;;5005627;28;20091;-78
2023/03/02 08:16:30;;;;;;;31.05;16.00;;;1.90;99.90;;;;;;5000370;28;20033;-77
2023/03/02 08:18:56;;;;;;;29.73;16.83;;;2.00;99.90;;;;;;5018721;28;20491;-80
2023/03/02 08:21:24;;;;;;;31.48;15.20;;;2.10;99.90;;;;;;5005330;28;20088;-79
2023/03/02 08:23:53;;;;;;;28.98;14.35;;;2.10;99.90;;;;;;5017291;28;20747;-76
2023/03/02 08:26:19;;;;;;;27.48;14.93;;;2.20;99.90;;;;;;5017843;28;20064;-80
2023/03/02 08:28:45;;;;;;;29.10;15.63;;;2.20;99.90;;;;;;4999470;28;20034;-80
2023/03/02 08:31:12;;;;;;;30.30;15.07;;;2.30;99.90;;;;;;5005780;28;20063;-80
2023/03/02 08:33:37;;;;;;;27.00;13.65;;;2.30;99.90;;;;;;5016268;28;20156;-79
2023/03/02 08:36:10;;;;;;;24.73;13.10;;;2.40;99.90;;;;;;5000068;28;20124;-80
2023/03/02 08:38:36;;;;;;;24.23;12.73;;;2.40;99.90;;;;;;5017434;28;20037;-79
2023/03/02 08:41:03;;;;;;;28.73;13.82;;;2.50;99.90;;;;;;5005970;28;20033;-79
2023/03/02 08:43:29;;;;;;;26.00;13.15;;;2.50;99.90;;;;;;5006459;28;20025;-78
2023/03/02 08:45:56;;;;;;;27.17;13.90;;;2.60;99.90;;;;;;4999018;28;20180;-78
2023/03/02 08:48:23;;;;;;;26.27;13.82;;;2.70;99.90;;;;;;4999512;28;20036;-77
2023/03/02 08:51:00;;;;;;;25.33;13.68;;;2.80;99.90;;;;;;5005156;28;20060;-78
2023/03/02 08:53:28;;;;;;;25.45;13.27;;;2.80;99.90;;;;;;4999991;28;20072;-79
2023/03/02 08:55:54;;;;;;;26.08;13.38;;;2.90;99.90;;;;;;5005708;28;20096;-79
2023/03/02 08:58:20;;;;;;;25.45;12.32;;;3.00;99.90;;;;;;5005087;28;20814;-78
2023/03/02 09:00:46;;;;;;;25.60;13.45;;;3.00;99.90;;;;;;5003986;28;20061;-77
2023/03/02 09:03:12;;;;;;;26.30;14.50;;;3.10;99.90;;;;;;5017210;28;20128;-77
2023/03/02 09:05:38;;;;;;;26.45;14.45;;;3.20;99.90;;;;;;5016247;28;22350;-77
2023/03/02 09:08:04;;;;;;;28.42;14.60;;;3.20;99.90;;;;;;5001058;28;20928;-79
2023/03/02 09:10:29;;;;;;;27.35;15.43;;;3.30;99.90;;;;;;5018737;28;20033;-80
2023/03/02 09:12:55;;;;;;;28.33;14.13;;;3.40;99.90;;;;;;5000560;28;20084;-78
2023/03/02 09:15:21;;;;;;;27.33;13.93;;;3.50;99.90;;;;;;5004876;28;20037;-76
2023/03/02 09:17:47;;;;;;;24.00;12.60;;;3.60;99.90;;;;;;4990104;28;20096;-78
2023/03/02 09:20:13;;;;;;;24.80;12.95;;;3.70;99.90;;;;;;5000586;28;20045;-83
2023/03/02 09:22:39;;;;;;;30.80;15.57;;;3.80;99.90;;;;;;5006541;28;20072;-79
2023/03/02 09:25:05;;;;;;;29.33;14.80;;;3.80;99.90;;;;;;5000037;28;20129;-81
2023/03/02 09:27:31;;;;;;;28.98;15.13;;;3.90;99.90;;;;;;5017373;28;20042;-78
2023/03/02 09:29:57;;;;;;;29.15;15.55;;;3.90;99.90;;;;;;5016949;28;20049;-81
2023/03/02 09:32:24;;;;;;;28.88;14.68;;;4.00;99.90;;;;;;5002601;28;20475;-80
2023/03/02 09:34:50;;;;;;;30.73;15.95;;;4.20;99.90;;;;;;5005325;28;20407;-78
2023/03/02 09:37:15;;;;;;;26.73;14.45;;;5.20;99.90;;;;;;5016568;28;20041;-77
2023/03/02 09:39:41;;;;;;;23.27;13.05;;;6.80;99.90;;;;;;4999691;28;22309;-80
2023/03/02 09:42:15;;;;;;;22.63;12.60;;;8.40;99.90;;;;;;5001609;28;20053;-78
2023/03/02 09:44:58;;;;;;;21.35;11.05;;;9.70;99.90;;;;;;5005054;28;20033;-79
2023/03/02 09:47:51;;;;;;;23.35;13.25;;;10.80;99.90;;;;;;5017071;28;20042;-78
2023/03/02 09:50:29;;;;;;;18.47;11.47;;;11.70;99.90;;;;;;4999730;28;20373;-80
2023/03/02 09:53:11;;;;;;;19.42;11.35;;;12.50;99.90;;;;;;5004980;28;20097;-79
2023/03/02 09:55:37;;;;;;;21.60;13.35;;;13.00;99.90;;;;;;4999948;28;20033;-81
2023/03/02 09:58:07;;;;;;;19.98;12.30;;;13.20;99.90;;;;;;5007782;28;20049;-81
2023/03/02 10:00:42;;;;;;;18.83;11.48;;;13.60;99.90;;;;;;5021363;28;20044;-79
2023/03/02 10:03:26;;;;;;;18.02;11.73;;;14.00;99.90;;;;;;5017126;28;20498;-80
2023/03/02 10:05:53;;;;;;;16.52;10.98;;;14.50;99.90;;;;;;5032105;28;20140;-80
2023/03/02 10:08:23;;;;;;;18.15;10.50;;;14.90;99.90;;;;;;5032341;28;20086;-81
2023/03/02 10:11:09;;;;;;;17.25;10.15;;;15.30;99.90;;;;;;5020737;28;20049;-79
2023/03/02 10:13:39;;;;;;;15.60;9.85;;;15.80;99.90;;;;;;5034119;28;20067;-79
2023/03/02 10:16:46;;;;;;;14.18;9.70;;;16.00;99.90;;;;;;5015178;28;20195;-80
2023/03/02 10:19:15;;;;;;;15.98;10.10;;;16.40;99.90;;;;;;5015195;28;20506;-78
2023/03/02 10:21:46;;;;;;;16.38;10.45;;;16.50;99.10;;;;;;5033618;28;20029;-79
2023/03/02 10:24:33;;;;;;;16.60;10.73;;;16.80;98.50;;;;;;5033440;28;20041;-78
2023/03/02 10:27:11;;;;;;;14.20;9.60;;;16.90;97.50;;;;;;5014008;28;20045;-80
2023/03/02 10:30:05;;;;;;;15.15;10.15;;;17.00;96.70;;;;;;5014706;28;20033;-83
2023/03/02 10:32:53;;;;;;;16.83;10.02;;;17.10;96.20;;;;;;5032878;28;20037;-80
2023/03/02 10:35:21;;;;;;;14.05;10.20;;;17.20;95.70;;;;;;5016084;28;20538;-78
2023/03/02 10:37:51;;;;;;;14.55;9.55;;;17.40;94.70;;;;;;5032043;28;20089;-79
2023/03/02 10:40:45;;;;;;;15.00;10.15;;;17.50;93.80;;;;;;5020723;28;20045;-79
2023/03/02 10:43:24;;;;;;;14.90;10.30;;;17.40;92.90;;;;;;5016512;28;20041;-80
2023/03/02 10:46:09;;;;;;;16.60;10.50;;;17.20;92.00;;;;;;5021466;28;20118;-78
2023/03/02 10:48:56;;;;;;;14.48;9.90;;;17.20;91.20;;;;;;5032796;28;20033;-80
2023/03/02 10:51:27;;;;;;;14.68;9.60;;;17.20;90.30;;;;;;5015285;28;20048;-78
2023/03/02 10:54:13;;;;;;;12.73;8.38;;;17.20;90.60;;;;;;5016227;28;20448;-77
2023/03/02 10:56:49;;;;;;;14.20;8.70;;;17.40;90.10;;;;;;5015166;28;20173;-79
2023/03/02 10:59:43;;;;;;;12.85;8.45;;;17.70;89.80;;;;;;5013506;28;20478;-81
2023/03/02 11:02:24;;;;;;;12.48;7.90;;;18.00;88.70;;;;;;5002883;28;20125;-79
2023/03/02 11:05:17;;;;;;;11.32;7.78;;;18.40;88.60;;;;;;5019512;28;20569;-76
2023/03/02 11:07:59;;;;;;;11.27;7.87;;;18.90;88.10;;;;;;5031499;28;20106;-82
2023/03/02 11:10:29;;;;;;;12.27;8.02;;;19.10;86.60;;;;;;5032281;28;20048;-80
2023/03/02 11:12:54;;;;;;;11.15;8.05;;;19.20;85.40;;;;;;5031992;28;20560;-79
2023/03/02 11:15:39;;;;;;;12.63;8.95;;;19.30;84.50;;;;;;5014777;28;20037;-79
2023/03/02 11:18:28;;;;;;;11.82;8.10;;;19.40;82.40;;;;;;5032279;28;20046;-81
2023/03/02 11:21:01;;;;;;;12.18;8.10;;;19.40;82.20;;;;;;5015388;28;20130;-79
2023/03/02 11:23:52;;;;;;;10.90;7.20;;;19.20;81.40;;;;;;5034412;28;20090;-78
2023/03/02 11:26:25;;;;;;;10.30;7.32;;;19.20;81.40;;;;;;5031916;28;20033;-78
2023/03/02 11:28:57;;;;;;;10.95;7.57;;;19.50;80.60;;;;;;5019356;28;20033;-81
2023/03/02 11:31:33;;;;;;;11.45;7.55;;;19.70;80.50;;;;;;5033593;28;20091;-78
2023/03/02 11:34:24;;;;;;;12.23;8.18;;;19.90;79.90;;;;;;5017870;28;20680;-79
2023/03/02 11:37:16;;;;;;;10.48;7.82;;;19.90;79.20;;;;;;5016702;28;20052;-79
2023/03/02 11:39:47;;;;;;;9.93;6.82;;;20.00;78.40;;;;;;5015556;28;20375;-82
2023/03/02 11:42:36;;;;;;;11.20;7.53;;;20.00;79.10;;;;;;5018281;28;20111;-80
2023/03/02 11:45:14;;;;;;;9.63;6.68;;;20.00;78.80;;;;;;5018066;28;20033;-79
2023/03/02 11:47:51;;;;;;;8.85;6.22;;;20.20;79.10;;;;;;5017341;28;20060;-80
2023/03/02 11:50:18;;;;;;;11.55;7.78;;;20.60;78.80;;;;;;5018631;28;20563;-79
2023/03/02 11:52:50;;;;;;;11.55;7.35;;;20.80;78.00;;;;;;5033797;28;20033;-79
2023/03/02 11:55:22;;;;;;;10.10;7.20;;;20.90;77.00;;;;;;5013969;28;20080;-79
2023/03/02 11:58:00;;;;;;;7.90;6.50;;;20.70;76.60;;;;;;5036291;28;20044;-79
2023/03/02 12:00:41;;;;;;;9.18;6.68;;;20.70;77.10;;;;;;5018297;28;20362;-79
2023/03/02 12:03:18;;;;;;;11.05;7.35;;;20.80;76.10;;;;;;5033680;28;20040;-80
2023/03/02 12:06:24;;;;;;;10.27;7.50;;;21.00;76.10;;;;;;5035582;28;20164;-79
2023/03/02 12:09:33;;;;;;;10.00;6.90;;;21.40;75.20;;;;;;5022727;28;20108;-77
2023/03/02 12:12:21;;;;;;;10.57;7.88;;;21.20;74.30;;;;;;5016967;28;20036;-79
2023/03/02 12:14:47;;;;;;;9.57;7.13;;;20.90;73.50;;;;;;5034027;28;20037;-80
2023/03/02 12:17:42;;;;;;;11.25;7.80;;;20.70;74.30;;;;;;5020565;28;20110;-80
2023/03/02 12:20:07;;;;;;;9.32;6.47;;;20.60;74.00;;;;;;5003658;28;20029;-80
2023/03/02 12:22:34;;;;;;;8.25;6.55;;;20.70;75.00;;;;;;5035085;28;20038;-79
2023/03/02 12:25:21;;;;;;;8.82;6.25;;;20.90;75.10;;;;;;5021536;28;20557;-80
2023/03/02 12:27:50;;;;;;;10.10;6.93;;;21.10;75.00;;;;;;5034883;28;20033;-83
2023/03/02 12:30:22;;;;;;;8.48;6.05;;;21.50;75.00;;;;;;5035751;28;20045;-80
2023/03/02 12:32:58;;;;;;;9.02;6.35;;;21.60;75.30;;;;;;5034864;28;20033;-84
2023/03/02 12:35:28;;;;;;;7.38;5.22;;;21.60;74.20;;;;;;5033991;28;20041;-82
2023/03/02 12:38:06;;;;;;;8.27;5.88;;;21.40;74.80;;;;;;5035016;28;20037;-81
2023/03/02 12:40:38;;;;;;;8.98;6.72;;;21.50;74.80;;;;;;5021667;28;20036;-81
2023/03/02 12:43:25;;;;;;;7.72;5.95;;;21.60;73.60;;;;;;5033620;28;20092;-82
2023/03/02 12:46:15;;;;;;;9.05;6.82;;;21.50;74.30;;;;;;5015648;28;20703;-80
2023/03/02 12:49:05;;;;;;;8.70;5.88;;;21.60;72.10;;;;;;5016574;28;20056;-82
2023/03/02 12:51:42;;;;;;;9.02;6.63;;;21.10;72.80;;;;;;5016259;28;20052;-78